Time;durP1;ratioP1;P1;durP2;ratioP2;P2;SDS_P1;SDS_P2;PMS_P1;PMS_P2;Temp;Humidity;BMP_temperature;BMP_pressure;BME280_temperature;BME280_humidity;BME280_pressure;Samples;Min_cycle;Max_cycle;Signal;HPM_P1;HPM_P2
2023/04/17 00:02:19;;;;;;;3.25;1.20;;;5.10;99.90;;;;;;5047613;28;20040;-77
2023/04/17 00:04:45;;;;;;;1.67;1.17;;;5.10;99.90;;;;;;5038145;28;20119;-78
2023/04/17 00:07:10;;;;;;;1.80;1.10;;;5.10;99.90;;;;;;5037750;28;20033;-78
2023/04/17 00:09:36;;;;;;;1.60;0.90;;;5.10;99.90;;;;;;5044033;28;20075;-78
2023/04/17 00:12:02;;;;;;;1.67;0.93;;;5.10;99.90;;;;;;5039581;28;20395;-78
2023/04/17 00:14:28;;;;;;;1.80;1.10;;;5.10;99.90;;;;;;5056632;28;20033;-76
2023/04/17 00:16:54;;;;;;;2.55;1.40;;;5.10;99.90;;;;;;5044359;28;20037;-78
2023/04/17 00:19:19;;;;;;;2.45;1.10;;;5.10;99.90;;;;;;5037867;28;20048;-78
2023/04/17 00:21:45;;;;;;;1.95;1.20;;;5.10;99.90;;;;;;5041289;28;20072;-77
2023/04/17 00:24:13;;;;;;;2.63;1.33;;;5.10;99.90;;;;;;5058125;28;20040;-78
2023/04/17 00:26:39;;;;;;;2.03;1.20;;;5.10;99.90;;;;;;5041842;28;20041;-78
2023/04/17 00:29:05;;;;;;;4.25;1.30;;;5.10;99.90;;;;;;5039732;28;20037;-78
2023/04/17 00:31:31;;;;;;;2.05;1.25;;;5.20;99.90;;;;;;5055391;28;20044;-78
2023/04/17 00:33:57;;;;;;;4.72;1.45;;;5.20;99.90;;;;;;5037899;28;20056;-78
2023/04/17 00:36:23;;;;;;;2.47;1.10;;;5.20;99.90;;;;;;5038820;28;20029;-78
2023/04/17 00:38:49;;;;;;;2.25;1.40;;;5.20;99.90;;;;;;5052519;28;20047;-78
2023/04/17 00:41:15;;;;;;;1.30;0.90;;;5.20;99.90;;;;;;5042247;28;20112;-78
2023/04/17 00:43:41;;;;;;;1.42;1.00;;;5.20;99.90;;;;;;5037934;28;20038;-78
2023/04/17 00:46:07;;;;;;;2.00;0.95;;;5.20;99.90;;;;;;5037901;28;20032;-78
2023/04/17 00:48:34;;;;;;;1.73;1.05;;;5.10;99.90;;;;;;5037959;28;20042;-78
2023/04/17 00:51:02;;;;;;;1.83;1.00;;;5.20;99.90;;;;;;5055920;28;20096;-78
2023/04/17 00:53:31;;;;;;;1.55;0.98;;;5.20;99.90;;;;;;5057189;28;20025;-78
2023/04/17 00:55:59;;;;;;;3.33;1.20;;;5.20;99.90;;;;;;5058236;28;20029;-78
2023/04/17 00:58:25;;;;;;;1.23;0.85;;;5.20;99.90;;;;;;5058617;28;20033;-78
2023/04/17 01:00:51;;;;;;;2.03;1.00;;;5.30;99.90;;;;;;5056437;28;20128;-78
2023/04/17 01:03:17;;;;;;;2.20;1.13;;;5.30;99.90;;;;;;5057055;28;20036;-78
2023/04/17 01:05:47;;;;;;;1.27;0.80;;;5.30;99.90;;;;;;5057375;28;20584;-78
2023/04/17 01:08:13;;;;;;;1.10;0.80;;;5.30;99.90;;;;;;5037767;28;20109;-78
2023/04/17 01:10:39;;;;;;;2.03;1.23;;;5.30;99.90;;;;;;5036942;28;20116;-78
2023/04/17 01:13:06;;;;;;;3.45;1.20;;;5.30;99.90;;;;;;5051450;28;20056;-78
2023/04/17 01:15:33;;;;;;;2.38;1.15;;;5.30;99.90;;;;;;5043064;28;20159;-78
2023/04/17 01:17:59;;;;;;;3.88;1.00;;;5.30;99.90;;;;;;5044996;28;20030;-78
2023/04/17 01:20:29;;;;;;;1.85;1.00;;;5.20;99.90;;;;;;5046512;28;20033;-78
2023/04/17 01:22:57;;;;;;;2.35;1.05;;;5.10;99.90;;;;;;5055983;28;20078;-78
2023/04/17 01:25:23;;;;;;;1.65;1.00;;;5.10;99.90;;;;;;5059423;28;20037;-78
2023/04/17 01:27:49;;;;;;;1.92;1.00;;;5.10;99.90;;;;;;5059979;28;20512;-78
2023/04/17 01:30:15;;;;;;;1.63;0.93;;;5.10;99.90;;;;;;5059652;28;20509;-78
2023/04/17 01:32:41;;;;;;;1.63;1.05;;;5.10;99.90;;;;;;5052081;28;20073;-78
2023/04/17 01:35:07;;;;;;;3.35;1.08;;;5.10;99.90;;;;;;5039957;28;20041;-78
2023/04/17 01:37:33;;;;;;;2.00;1.08;;;5.10;99.90;;;;;;5043741;28;20037;-78
2023/04/17 01:39:59;;;;;;;2.42;1.20;;;5.10;99.90;;;;;;5057872;28;20084;-78
2023/04/17 01:42:25;;;;;;;1.65;0.88;;;5.10;99.90;;;;;;5059431;28;20037;-78
2023/04/17 01:44:51;;;;;;;1.85;1.10;;;5.10;99.90;;;;;;5059223;28;20518;-78
2023/04/17 01:47:16;;;;;;;1.90;1.00;;;5.10;99.90;;;;;;5052649;28;20057;-78
2023/04/17 01:49:42;;;;;;;1.40;0.85;;;5.10;99.90;;;;;;5041058;28;20118;-78
2023/04/17 01:52:08;;;;;;;1.88;0.90;;;5.20;99.90;;;;;;5039883;28;20157;-78
2023/04/17 01:54:33;;;;;;;1.40;0.80;;;5.10;99.90;;;;;;5040390;28;20092;-78
2023/04/17 01:57:00;;;;;;;3.53;2.17;;;5.20;99.90;;;;;;5057924;28;20056;-78
2023/04/17 01:59:26;;;;;;;8.32;3.97;;;5.20;99.90;;;;;;5059811;28;20057;-78
2023/04/17 02:01:52;;;;;;;12.20;6.50;;;5.20;99.90;;;;;;5044708;28;20045;-78
2023/04/17 02:04:18;;;;;;;13.57;6.20;;;5.10;99.90;;;;;;5055987;28;20387;-78
2023/04/17 02:06:43;;;;;;;16.67;6.43;;;5.00;99.90;;;;;;5055701;28;20033;-78
2023/04/17 02:09:09;;;;;;;11.90;6.45;;;5.00;99.90;;;;;;5040885;28;20045;-78
2023/04/17 02:11:35;;;;;;;23.92;11.15;;;5.00;99.90;;;;;;5039742;28;20048;-78
2023/04/17 02:14:00;;;;;;;17.50;8.32;;;5.00;99.90;;;;;;5040976;28;20033;-78
2023/04/17 02:16:27;;;;;;;12.85;5.78;;;4.90;99.90;;;;;;5050641;28;20380;-78
2023/04/17 02:18:54;;;;;;;6.22;3.22;;;4.90;99.90;;;;;;5050674;28;20029;-78
2023/04/17 02:21:20;;;;;;;4.70;2.42;;;4.80;99.90;;;;;;5058599;28;20029;-78
2023/04/17 02:23:46;;;;;;;4.57;2.20;;;4.80;99.90;;;;;;5057383;28;20048;-78
2023/04/17 02:26:12;;;;;;;3.25;1.60;;;4.70;99.90;;;;;;5055968;28;20047;-78
2023/04/17 02:28:38;;;;;;;2.92;1.73;;;4.60;99.90;;;;;;5055925;28;20025;-78
2023/04/17 02:31:07;;;;;;;2.55;1.63;;;4.60;99.90;;;;;;5055667;28;20487;-78
2023/04/17 02:33:35;;;;;;;3.75;2.08;;;4.60;99.90;;;;;;5056598;28;20033;-77
2023/04/17 02:36:02;;;;;;;3.83;1.88;;;4.60;99.90;;;;;;5036358;28;20041;-78
2023/04/17 02:38:30;;;;;;;2.83;2.00;;;4.60;99.90;;;;;;5036719;28;20507;-78
2023/04/17 02:40:57;;;;;;;2.95;1.80;;;4.60;99.90;;;;;;5037052;28;20503;-78
2023/04/17 02:43:23;;;;;;;2.45;1.77;;;4.70;99.90;;;;;;5053343;28;20092;-78
2023/04/17 02:45:48;;;;;;;2.38;1.42;;;4.70;99.90;;;;;;5037823;28;20025;-78
2023/04/17 02:48:14;;;;;;;1.95;1.30;;;4.80;99.90;;;;;;5049763;28;20100;-78
2023/04/17 02:50:40;;;;;;;1.75;1.17;;;4.80;99.90;;;;;;5036930;28;20033;-78
2023/04/17 02:53:06;;;;;;;1.70;0.98;;;4.80;99.90;;;;;;5036193;28;20121;-78
2023/04/17 02:55:32;;;;;;;2.20;1.00;;;4.80;99.90;;;;;;5036222;28;20373;-78
2023/04/17 02:57:57;;;;;;;1.80;1.13;;;4.80;99.90;;;;;;5045130;28;20045;-78
2023/04/17 03:00:25;;;;;;;3.03;1.17;;;4.80;99.90;;;;;;5047784;28;20128;-78
2023/04/17 03:02:51;;;;;;;1.98;1.08;;;4.80;99.90;;;;;;5041536;28;20044;-77
2023/04/17 03:05:19;;;;;;;1.58;0.98;;;4.80;99.90;;;;;;5041743;28;20044;-78
2023/04/17 03:07:45;;;;;;;2.17;1.30;;;4.80;99.90;;;;;;5055599;28;20044;-78
2023/04/17 03:10:10;;;;;;;2.03;1.20;;;4.80;99.90;;;;;;5054499;28;20040;-78
2023/04/17 03:12:36;;;;;;;1.88;1.15;;;4.80;99.90;;;;;;5041831;28;20033;-78
2023/04/17 03:15:02;;;;;;;2.17;1.30;;;4.80;99.90;;;;;;5049486;28;20029;-77
2023/04/17 03:17:28;;;;;;;1.67;0.88;;;4.70;99.90;;;;;;5039988;28;20083;-77
2023/04/17 03:19:53;;;;;;;1.52;1.00;;;4.80;99.90;;;;;;5044301;28;20044;-78
2023/04/17 03:22:19;;;;;;;1.73;1.00;;;4.70;99.90;;;;;;5047263;28;20039;-78
2023/04/17 03:24:45;;;;;;;1.27;0.82;;;4.80;99.90;;;;;;5054353;28;20092;-78
2023/04/17 03:27:11;;;;;;;1.58;0.90;;;4.80;99.90;;;;;;5043988;28;20026;-78
2023/04/17 03:29:37;;;;;;;2.33;1.27;;;4.70;99.90;;;;;;5056709;28;20103;-78
2023/04/17 03:32:03;;;;;;;1.63;0.90;;;4.80;99.90;;;;;;5052926;28;20030;-78
2023/04/17 03:34:30;;;;;;;2.13;0.95;;;4.70;99.90;;;;;;5037783;28;20174;-78
2023/04/17 03:36:56;;;;;;;1.55;0.90;;;4.80;99.90;;;;;;5036196;28;20029;-78
2023/04/17 03:39:21;;;;;;;1.48;1.00;;;4.70;99.90;;;;;;5056505;28;20052;-78
2023/04/17 03:41:50;;;;;;;1.77;1.05;;;4.70;99.90;;;;;;5048933;28;20041;-78
2023/04/17 03:44:17;;;;;;;1.70;1.10;;;4.70;99.90;;;;;;5044661;28;20042;-78
2023/04/17 03:46:43;;;;;;;1.58;1.02;;;4.70;99.90;;;;;;5038058;28;20041;-78
2023/04/17 03:49:11;;;;;;;3.47;1.15;;;4.70;99.90;;;;;;5045238;28;20044;-78
2023/04/17 03:51:37;;;;;;;1.80;1.10;;;4.70;99.90;;;;;;5041135;28;20556;-78
2023/04/17 03:54:03;;;;;;;6.32;2.83;;;4.70;99.90;;;;;;5045705;28;20120;-78
2023/04/17 03:56:28;;;;;;;4.57;2.42;;;4.60;99.90;;;;;;5043574;28;20108;-75
2023/04/17 03:58:54;;;;;;;4.10;2.05;;;4.60;99.90;;;;;;5049933;28;20037;-76
2023/04/17 04:01:21;;;;;;;4.55;1.88;;;4.50;99.90;;;;;;5044770;28;20034;-76
2023/04/17 04:03:47;;;;;;;3.42;1.90;;;4.50;99.90;;;;;;5049007;28;20045;-77
2023/04/17 04:06:12;;;;;;;4.35;2.00;;;4.50;99.90;;;;;;5040750;28;20036;-76
2023/04/17 04:08:39;;;;;;;2.70;1.80;;;4.50;99.90;;;;;;5033408;28;20069;-76
2023/04/17 04:11:04;;;;;;;3.28;1.67;;;4.50;99.90;;;;;;5007965;28;20049;-76
2023/04/17 04:13:30;;;;;;;2.83;1.80;;;4.50;99.90;;;;;;5040280;28;20036;-76
2023/04/17 04:15:56;;;;;;;2.50;1.42;;;4.50;99.90;;;;;;5048095;28;20057;-76
2023/04/17 04:18:21;;;;;;;2.75;1.63;;;4.50;99.90;;;;;;5042468;28;20049;-76
2023/04/17 04:20:47;;;;;;;4.80;1.83;;;4.40;99.90;;;;;;5030289;28;20038;-76
2023/04/17 04:23:15;;;;;;;3.45;1.48;;;4.50;99.90;;;;;;5032654;28;20097;-76
2023/04/17 04:25:42;;;;;;;15.15;7.85;;;4.50;99.90;;;;;;5045468;28;20072;-77
2023/04/17 04:28:09;;;;;;;26.50;16.38;;;4.40;99.90;;;;;;5048037;28;20037;-77
2023/04/17 04:30:37;;;;;;;24.55;15.35;;;4.40;99.90;;;;;;5035689;28;20041;-77
2023/04/17 04:33:07;;;;;;;20.83;13.15;;;4.40;99.90;;;;;;5042443;28;20037;-76
2023/04/17 04:35:32;;;;;;;10.93;6.47;;;4.40;99.90;;;;;;5038243;28;20036;-76
2023/04/17 04:38:01;;;;;;;8.90;5.05;;;4.40;99.90;;;;;;5040189;28;20033;-77
2023/04/17 04:40:34;;;;;;;9.93;5.20;;;4.50;99.90;;;;;;5050439;28;20076;-76
2023/04/17 04:43:00;;;;;;;7.05;2.63;;;4.50;99.90;;;;;;5033918;28;20110;-77
2023/04/17 04:45:26;;;;;;;3.83;2.50;;;4.50;99.90;;;;;;5043408;28;20495;-77
2023/04/17 04:47:52;;;;;;;12.45;5.85;;;4.50;99.90;;;;;;5042371;28;20034;-77
2023/04/17 04:50:18;;;;;;;8.48;3.53;;;4.50;99.90;;;;;;5029896;28;20095;-76
2023/04/17 04:52:44;;;;;;;8.65;4.47;;;4.50;99.90;;;;;;5052962;28;20404;-77
2023/04/17 04:55:10;;;;;;;6.32;3.67;;;4.40;99.90;;;;;;5039807;28;20032;-77
2023/04/17 04:57:35;;;;;;;4.70;2.38;;;4.40;99.90;;;;;;5036936;28;20487;-77
2023/04/17 05:00:05;;;;;;;7.60;4.68;;;4.40;99.90;;;;;;5038728;28;20038;-77
2023/04/17 05:02:30;;;;;;;6.30;3.70;;;4.40;99.90;;;;;;5049699;28;20040;-76
2023/04/17 05:04:56;;;;;;;14.27;7.18;;;4.40;99.90;;;;;;5052108;28;20029;-76
2023/04/17 05:07:22;;;;;;;15.32;7.85;;;4.40;99.90;;;;;;5033453;28;20087;-77
2023/04/17 05:09:48;;;;;;;13.27;6.07;;;4.40;99.90;;;;;;5043493;28;20176;-76
2023/04/17 05:12:14;;;;;;;4.35;2.60;;;4.40;99.90;;;;;;5052777;28;20033;-76
2023/04/17 05:14:40;;;;;;;3.13;1.95;;;4.40;99.90;;;;;;5060482;28;20037;-76
2023/04/17 05:17:07;;;;;;;4.15;1.85;;;4.40;99.90;;;;;;5043978;28;20388;-76
2023/04/17 05:19:32;;;;;;;2.80;1.83;;;4.40;99.90;;;;;;5048700;28;20124;-76
2023/04/17 05:21:58;;;;;;;3.40;2.10;;;4.40;99.90;;;;;;5055028;28;20562;-76
2023/04/17 05:24:24;;;;;;;3.00;1.85;;;4.40;99.90;;;;;;5025315;28;20033;-76
2023/04/17 05:26:49;;;;;;;2.65;1.80;;;4.40;99.90;;;;;;5050669;28;20036;-76
2023/04/17 05:29:15;;;;;;;4.65;2.22;;;4.40;99.90;;;;;;5047749;28;20100;-76
2023/04/17 05:31:41;;;;;;;3.33;2.20;;;4.40;99.90;;;;;;5048897;28;20087;-76
2023/04/17 05:34:07;;;;;;;5.30;2.97;;;4.40;99.90;;;;;;5058665;28;20033;-76
2023/04/17 05:36:32;;;;;;;4.75;3.33;;;4.40;99.90;;;;;;5060038;28;20033;-76
2023/04/17 05:38:58;;;;;;;5.80;3.35;;;4.50;99.90;;;;;;5059076;28;20033;-76
2023/04/17 05:41:25;;;;;;;7.82;3.92;;;4.50;99.90;;;;;;5059014;28;20104;-76
2023/04/17 05:43:50;;;;;;;4.53;2.80;;;4.50;99.90;;;;;;5060290;28;20029;-76
2023/04/17 05:46:16;;;;;;;4.53;2.88;;;4.60;99.90;;;;;;5058961;28;20033;-76
2023/04/17 05:48:42;;;;;;;2.83;2.05;;;4.60;99.90;;;;;;5048236;28;20045;-76
2023/04/17 05:51:07;;;;;;;3.05;1.90;;;4.60;99.90;;;;;;5023640;28;20042;-77
2023/04/17 05:53:34;;;;;;;3.85;2.10;;;4.70;99.90;;;;;;5039407;28;20036;-76
2023/04/17 05:56:02;;;;;;;3.38;1.98;;;4.70;99.90;;;;;;5040009;28;20033;-76
2023/04/17 05:58:27;;;;;;;5.07;1.92;;;4.80;99.90;;;;;;5040203;28;20033;-76
2023/04/17 06:00:53;;;;;;;3.70;1.90;;;4.80;99.90;;;;;;5022026;28;20030;-76
2023/04/17 06:03:19;;;;;;;3.35;2.05;;;4.80;99.90;;;;;;5038087;28;20041;-76
2023/04/17 06:05:45;;;;;;;3.45;1.88;;;4.80;99.90;;;;;;5039285;28;20492;-76
2023/04/17 06:08:11;;;;;;;3.53;1.70;;;4.80;99.90;;;;;;5039761;28;20052;-76
2023/04/17 06:10:37;;;;;;;3.00;2.00;;;4.90;99.90;;;;;;5005802;28;20038;-77
2023/04/17 06:13:02;;;;;;;3.15;1.83;;;4.80;99.90;;;;;;5038964;28;20075;-77
2023/04/17 06:15:28;;;;;;;3.58;2.03;;;4.90;99.90;;;;;;5039897;28;20025;-76
2023/04/17 06:17:54;;;;;;;3.65;2.28;;;4.90;99.90;;;;;;5039126;28;20087;-76
2023/04/17 06:20:20;;;;;;;3.10;1.92;;;4.90;99.90;;;;;;5022001;28;20069;-76
2023/04/17 06:22:45;;;;;;;3.60;2.20;;;5.00;99.90;;;;;;5038904;28;20080;-76
2023/04/17 06:25:12;;;;;;;7.50;2.45;;;5.00;99.90;;;;;;5038268;28;20033;-77
2023/04/17 06:27:37;;;;;;;6.63;1.90;;;5.10;99.90;;;;;;5039990;28;20086;-76
2023/04/17 06:30:04;;;;;;;4.10;2.47;;;5.10;99.90;;;;;;5038456;28;20041;-76
2023/04/17 06:32:30;;;;;;;5.80;3.70;;;5.10;99.90;;;;;;5029455;28;20061;-76
2023/04/17 06:34:55;;;;;;;7.10;3.70;;;5.10;99.90;;;;;;5044261;28;20476;-77
2023/04/17 06:37:21;;;;;;;4.95;3.03;;;5.20;99.90;;;;;;5048801;28;20032;-76
2023/04/17 06:39:47;;;;;;;3.97;2.60;;;5.20;99.90;;;;;;5040520;28;20107;-76
2023/04/17 06:42:15;;;;;;;3.60;2.28;;;5.20;99.90;;;;;;5040753;28;20063;-76
2023/04/17 06:44:41;;;;;;;4.38;3.00;;;5.30;99.90;;;;;;5057631;28;20055;-76
2023/04/17 06:47:07;;;;;;;4.28;2.42;;;5.40;99.90;;;;;;5042982;28;20029;-76
2023/04/17 06:49:33;;;;;;;3.35;1.88;;;5.40;99.90;;;;;;5044860;28;20037;-76
2023/04/17 06:51:59;;;;;;;3.60;2.13;;;5.40;99.90;;;;;;5015718;28;20057;-76
2023/04/17 06:54:25;;;;;;;2.85;2.03;;;5.50;99.90;;;;;;5049760;28;20549;-76
2023/04/17 06:56:51;;;;;;;4.57;2.30;;;5.50;99.90;;;;;;5048596;28;20158;-76
2023/04/17 06:59:17;;;;;;;5.07;2.30;;;5.50;99.90;;;;;;5047559;28;20064;-76
2023/04/17 07:01:43;;;;;;;3.50;2.30;;;5.50;99.90;;;;;;5055806;28;20038;-77
2023/04/17 07:04:09;;;;;;;4.10;2.30;;;5.50;99.90;;;;;;5051773;28;20037;-76
2023/04/17 07:06:35;;;;;;;3.30;2.15;;;5.50;99.90;;;;;;5050776;28;20036;-76
2023/04/17 07:09:01;;;;;;;4.70;2.45;;;5.50;99.90;;;;;;5043971;28;20048;-76
2023/04/17 07:11:27;;;;;;;3.35;2.03;;;5.60;99.90;;;;;;5053389;28;20510;-75
2023/04/17 07:13:53;;;;;;;3.67;2.22;;;5.60;99.90;;;;;;5045823;28;20057;-75
2023/04/17 07:16:21;;;;;;;3.78;2.10;;;5.60;99.90;;;;;;5041611;28;20037;-75
2023/04/17 07:18:50;;;;;;;3.53;2.33;;;5.60;99.90;;;;;;5051597;28;20025;-75
2023/04/17 07:21:16;;;;;;;4.70;2.85;;;5.70;99.90;;;;;;5060089;28;20040;-75
2023/04/17 07:23:42;;;;;;;4.47;2.47;;;5.70;99.90;;;;;;5057058;28;20051;-75
2023/04/17 07:26:09;;;;;;;3.35;2.40;;;5.70;99.90;;;;;;5055947;28;20067;-75
2023/04/17 07:28:39;;;;;;;3.78;2.50;;;5.70;99.90;;;;;;5058100;28;20052;-75
2023/04/17 07:31:08;;;;;;;4.32;3.13;;;5.80;99.90;;;;;;5058578;28;20111;-76
2023/04/17 07:33:37;;;;;;;3.95;2.67;;;5.80;99.90;;;;;;5057830;28;20033;-76
2023/04/17 07:36:08;;;;;;;6.15;3.58;;;5.90;99.90;;;;;;5058562;28;20529;-75
2023/04/17 07:38:33;;;;;;;5.35;3.30;;;5.90;99.90;;;;;;5058123;28;20041;-76
2023/04/17 07:40:59;;;;;;;5.07;3.10;;;5.90;99.90;;;;;;5040610;28;20048;-75
2023/04/17 07:43:28;;;;;;;5.82;3.47;;;5.90;99.90;;;;;;5059366;28;20403;-75
2023/04/17 07:45:54;;;;;;;5.55;3.47;;;6.00;99.90;;;;;;5058424;28;20080;-75
2023/04/17 07:48:21;;;;;;;4.35;3.08;;;6.00;99.90;;;;;;5059255;28;20052;-76
2023/04/17 07:50:50;;;;;;;5.45;4.00;;;6.00;99.90;;;;;;5057137;28;20037;-76
2023/04/17 07:53:21;;;;;;;6.82;4.50;;;6.00;99.90;;;;;;5057484;28;20401;-76
2023/04/17 07:55:47;;;;;;;6.05;4.28;;;6.00;99.90;;;;;;5058611;28;20049;-76
2023/04/17 07:58:13;;;;;;;6.07;3.90;;;6.10;99.90;;;;;;5058092;28;20055;-75
2023/04/17 08:00:40;;;;;;;6.00;3.80;;;6.10;99.90;;;;;;5058753;28;20029;-76
2023/04/17 08:03:06;;;;;;;5.32;3.85;;;6.10;99.90;;;;;;5058570;28;20364;-76
2023/04/17 08:05:32;;;;;;;6.85;4.70;;;6.10;99.90;;;;;;5058381;28;20121;-76
2023/04/17 08:07:59;;;;;;;6.43;4.22;;;6.10;99.90;;;;;;5059071;28;20032;-76
2023/04/17 08:10:25;;;;;;;5.82;4.00;;;6.10;99.90;;;;;;5042080;28;20539;-76
2023/04/17 08:12:51;;;;;;;5.72;4.20;;;6.10;99.90;;;;;;5042090;28;20104;-76
2023/04/17 08:15:17;;;;;;;5.82;3.72;;;6.20;99.90;;;;;;5058836;28;20075;-76
2023/04/17 08:17:43;;;;;;;6.00;3.90;;;6.20;99.90;;;;;;5041155;28;20026;-76
2023/04/17 08:20:10;;;;;;;5.63;3.92;;;6.20;99.90;;;;;;5050949;28;20384;-76
2023/04/17 08:22:44;;;;;;;6.93;4.85;;;6.20;99.90;;;;;;5051361;28;20025;-76
2023/04/17 08:25:11;;;;;;;9.15;5.13;;;6.20;99.90;;;;;;5057859;28;20079;-76
2023/04/17 08:27:41;;;;;;;8.35;5.05;;;6.20;99.90;;;;;;5058293;28;20037;-76
2023/04/17 08:30:09;;;;;;;8.68;5.70;;;6.30;99.90;;;;;;5058579;28;20033;-76
2023/04/17 08:32:40;;;;;;;8.82;5.57;;;6.20;99.90;;;;;;5058201;28;20036;-76
2023/04/17 08:35:07;;;;;;;10.45;5.75;;;6.30;99.90;;;;;;5055833;28;20377;-76
2023/04/17 08:37:34;;;;;;;9.57;5.90;;;6.30;99.90;;;;;;5049466;28;20535;-76
2023/04/17 08:40:03;;;;;;;8.93;5.45;;;6.30;99.90;;;;;;5051012;28;20083;-77
2023/04/17 08:42:31;;;;;;;9.13;5.30;;;6.30;99.90;;;;;;5052461;28;20045;-76
2023/04/17 08:45:03;;;;;;;9.25;5.78;;;6.40;99.90;;;;;;5055819;28;20029;-76
2023/04/17 08:47:29;;;;;;;10.65;6.63;;;6.40;99.90;;;;;;5043972;28;20554;-76
2023/04/17 08:49:56;;;;;;;8.48;5.65;;;6.50;99.90;;;;;;5051148;28;20079;-76
2023/04/17 08:52:22;;;;;;;10.82;5.70;;;6.60;99.90;;;;;;5053342;28;20029;-76
2023/04/17 08:54:48;;;;;;;11.85;5.72;;;6.60;99.90;;;;;;5043602;28;20097;-77
2023/04/17 08:57:14;;;;;;;10.07;6.20;;;6.70;99.90;;;;;;5059175;28;20033;-76
2023/04/17 08:59:44;;;;;;;8.05;5.30;;;6.70;99.90;;;;;;5041445;28;20044;-76
2023/04/17 09:02:11;;;;;;;9.18;6.38;;;6.80;99.90;;;;;;5046889;28;20041;-76
2023/04/17 09:04:38;;;;;;;8.93;5.43;;;6.90;99.90;;;;;;5049951;28;20088;-76
2023/04/17 09:07:05;;;;;;;9.80;6.20;;;6.90;99.90;;;;;;5049694;28;20083;-76
2023/04/17 09:09:47;;;;;;;10.15;6.10;;;7.00;99.90;;;;;;5039254;28;20497;-76
2023/04/17 09:12:13;;;;;;;9.32;5.65;;;7.10;99.90;;;;;;5044050;28;20034;-76
2023/04/17 09:14:39;;;;;;;8.18;5.28;;;7.20;99.90;;;;;;5044286;28;20461;-76
2023/04/17 09:17:05;;;;;;;6.95;4.30;;;7.30;99.90;;;;;;5057701;28;20052;-76
2023/04/17 09:19:31;;;;;;;7.55;4.80;;;7.40;99.90;;;;;;5064067;28;20479;-76
2023/04/17 09:21:56;;;;;;;6.82;4.28;;;7.40;99.90;;;;;;5063418;28;20048;-76
2023/04/17 09:24:36;;;;;;;7.63;4.40;;;7.50;99.90;;;;;;5063466;28;20037;-76
2023/04/17 09:27:37;;;;;;;8.13;5.20;;;7.50;99.90;;;;;;5044828;28;20041;-76
2023/04/17 09:30:04;;;;;;;8.15;4.25;;;7.50;99.90;;;;;;5021661;28;20038;-76
2023/04/17 09:32:32;;;;;;;7.72;4.97;;;7.50;99.90;;;;;;5054382;28;20033;-76
2023/04/17 09:35:03;;;;;;;9.13;5.53;;;7.60;99.90;;;;;;5059360;28;20030;-76
2023/04/17 09:37:49;;;;;;;9.30;5.00;;;7.70;99.90;;;;;;5048463;28;20060;-76
2023/04/17 09:40:16;;;;;;;6.40;4.35;;;7.80;99.90;;;;;;5053262;28;20044;-76
2023/04/17 09:43:02;;;;;;;6.25;3.97;;;7.80;99.90;;;;;;5052220;28;20038;-76
2023/04/17 09:45:34;;;;;;;7.03;4.93;;;7.90;99.90;;;;;;5059816;28;20040;-76
2023/04/17 09:48:01;;;;;;;5.78;3.72;;;8.00;99.90;;;;;;5046050;28;20048;-76
2023/04/17 09:50:27;;;;;;;8.57;5.20;;;8.10;99.90;;;;;;5061001;28;20057;-76
2023/04/17 09:52:54;;;;;;;6.93;4.40;;;8.20;99.90;;;;;;5062002;28;20538;-76
2023/04/17 09:55:22;;;;;;;7.10;3.50;;;8.30;99.90;;;;;;5060150;28;20033;-76
2023/04/17 09:57:53;;;;;;;5.60;3.70;;;8.30;99.90;;;;;;5063042;28;20092;-76
2023/04/17 10:00:20;;;;;;;4.90;3.15;;;8.40;99.90;;;;;;5060680;28;20044;-76
2023/04/17 10:02:53;;;;;;;4.53;3.10;;;8.50;99.90;;;;;;5060216;28;20499;-76
2023/04/17 10:05:23;;;;;;;4.45;2.83;;;8.50;99.90;;;;;;5062956;28;20080;-76
2023/04/17 10:07:49;;;;;;;3.67;2.27;;;8.60;99.90;;;;;;5061471;28;20033;-76
2023/04/17 10:10:32;;;;;;;3.58;2.28;;;8.60;99.90;;;;;;5058641;28;20713;-76
2023/04/17 10:13:00;;;;;;;3.17;2.17;;;8.70;99.90;;;;;;5046702;28;20029;-76
2023/04/17 10:15:27;;;;;;;3.45;2.35;;;8.70;99.90;;;;;;5043141;28;20492;-76
2023/04/17 10:17:56;;;;;;;2.80;1.90;;;8.70;99.90;;;;;;5056587;28;20043;-77
2023/04/17 10:20:22;;;;;;;4.38;2.65;;;8.80;99.90;;;;;;5037338;28;20042;-76
2023/04/17 10:23:40;;;;;;;3.65;2.67;;;8.80;99.90;;;;;;5048094;28;20029;-76
2023/04/17 10:26:24;;;;;;;3.42;2.20;;;8.90;99.90;;;;;;5034583;28;20040;-76
2023/04/17 10:28:52;;;;;;;2.75;1.80;;;8.90;99.90;;;;;;5058449;28;20036;-76
2023/04/17 10:31:22;;;;;;;3.53;2.30;;;8.90;99.90;;;;;;5051451;28;20503;-76
2023/04/17 10:33:55;;;;;;;2.83;1.87;;;8.90;99.90;;;;;;5037223;28;20033;-76
2023/04/17 10:36:39;;;;;;;2.53;1.50;;;8.90;99.90;;;;;;5037255;28;20766;-76
2023/04/17 10:39:17;;;;;;;3.50;1.65;;;8.90;99.90;;;;;;5048931;28;20127;-76
2023/04/17 10:42:02;;;;;;;3.83;2.58;;;8.90;99.90;;;;;;5050299;28;20021;-76
2023/04/17 10:44:49;;;;;;;2.80;2.00;;;8.90;99.90;;;;;;5057267;28;20123;-76
2023/04/17 10:47:18;;;;;;;3.72;2.30;;;8.90;99.90;;;;;;5039645;28;20025;-76
2023/04/17 10:49:55;;;;;;;3.05;2.03;;;9.00;99.90;;;;;;5056453;28;20387;-76
2023/04/17 10:52:43;;;;;;;2.50;1.83;;;9.00;99.90;;;;;;5057195;28;20039;-76
2023/04/17 10:55:09;;;;;;;3.50;2.20;;;9.10;99.90;;;;;;5053905;28;20103;-76
2023/04/17 10:58:11;;;;;;;2.35;1.52;;;9.30;99.90;;;;;;5042580;28;20472;-76
2023/04/17 11:00:47;;;;;;;3.22;1.75;;;9.40;99.90;;;;;;5036509;28;20036;-76
2023/04/17 11:03:15;;;;;;;3.08;1.75;;;9.50;99.90;;;;;;5036682;28;20100;-76
2023/04/17 11:05:45;;;;;;;2.72;1.77;;;9.60;99.90;;;;;;5036705;28;20037;-76
2023/04/17 11:08:12;;;;;;;3.50;2.13;;;9.70;99.90;;;;;;5036514;28;20108;-76
2023/04/17 11:10:37;;;;;;;2.88;2.10;;;9.70;99.90;;;;;;5036949;28;20367;-76
2023/04/17 11:13:03;;;;;;;3.38;2.13;;;9.80;99.90;;;;;;5018483;28;20072;-76
2023/04/17 11:15:30;;;;;;;2.67;1.67;;;9.90;99.90;;;;;;5036585;28;20040;-76
2023/04/17 11:17:57;;;;;;;3.58;2.40;;;10.00;99.90;;;;;;5036129;28;20072;-76
2023/04/17 11:20:25;;;;;;;2.60;1.70;;;10.00;99.90;;;;;;5036887;28;20057;-76
2023/04/17 11:22:51;;;;;;;2.83;1.95;;;10.00;99.90;;;;;;5038809;28;20060;-76
2023/04/17 11:25:25;;;;;;;2.10;1.50;;;10.00;99.90;;;;;;5030060;28;20056;-76
2023/04/17 11:27:59;;;;;;;4.25;1.58;;;10.10;99.90;;;;;;5048568;28;20025;-77
2023/04/17 11:30:36;;;;;;;3.20;1.77;;;10.00;99.90;;;;;;5047476;28;20037;-77
2023/04/17 11:33:04;;;;;;;2.88;1.77;;;10.00;99.90;;;;;;5050365;28;20125;-76
2023/04/17 11:35:35;;;;;;;3.67;2.22;;;9.90;99.90;;;;;;5059183;28;20041;-77
2023/04/17 11:38:19;;;;;;;2.72;1.88;;;9.90;99.90;;;;;;5060765;28;20095;-77
2023/04/17 11:40:59;;;;;;;3.47;2.30;;;9.80;99.90;;;;;;5045395;28;20063;-77
2023/04/17 11:43:25;;;;;;;2.15;1.38;;;9.80;99.90;;;;;;5042370;28;20030;-77
2023/04/17 11:45:56;;;;;;;2.38;1.58;;;9.70;99.90;;;;;;5051645;28;20041;-77
2023/04/17 11:48:26;;;;;;;3.30;2.13;;;9.60;99.90;;;;;;5040528;28;20030;-76
2023/04/17 11:50:58;;;;;;;3.70;1.70;;;9.60;99.90;;;;;;5020919;28;20041;-77
2023/04/17 11:53:24;;;;;;;2.60;1.83;;;9.50;99.90;;;;;;5038466;28;20119;-77
2023/04/17 11:56:13;;;;;;;3.53;2.40;;;9.40;99.90;;;;;;5045172;28;20459;-77
2023/04/17 11:58:49;;;;;;;3.10;1.90;;;9.30;99.90;;;;;;5030961;28;20057;-77
2023/04/17 12:01:16;;;;;;;2.25;1.60;;;9.20;99.90;;;;;;5038061;28;20060;-77
2023/04/17 12:03:41;;;;;;;2.85;1.92;;;9.30;99.90;;;;;;5036563;28;20041;-77
2023/04/17 12:06:08;;;;;;;2.20;1.58;;;9.30;99.90;;;;;;5026432;28;20037;-77
2023/04/17 12:08:43;;;;;;;1.73;1.15;;;9.30;99.90;;;;;;5036641;28;20040;-77
2023/04/17 12:11:24;;;;;;;2.90;1.65;;;9.40;99.90;;;;;;5045450;28;20055;-77
2023/04/17 12:13:51;;;;;;;2.15;1.52;;;9.40;99.90;;;;;;5050152;28;20033;-76
2023/04/17 12:16:17;;;;;;;2.55;1.40;;;9.50;99.90;;;;;;5048859;28;20364;-76
2023/04/17 12:18:44;;;;;;;4.97;1.80;;;9.40;99.90;;;;;;5036829;28;20029;-76
2023/04/17 12:21:10;;;;;;;2.20;1.55;;;9.40;99.90;;;;;;5020023;28;20037;-76
2023/04/17 12:23:36;;;;;;;2.55;1.80;;;9.40;99.90;;;;;;5044645;28;20132;-77
2023/04/17 12:26:02;;;;;;;2.25;1.63;;;9.40;99.90;;;;;;5044251;28;20126;-77
2023/04/17 12:28:29;;;;;;;2.53;1.60;;;9.40;99.90;;;;;;5034698;28;20030;-76
2023/04/17 12:30:55;;;;;;;2.58;1.58;;;9.50;99.90;;;;;;5039642;28;20048;-76
2023/04/17 12:33:20;;;;;;;2.80;1.50;;;9.50;99.90;;;;;;5052118;28;20434;-76
2023/04/17 12:35:46;;;;;;;2.88;1.92;;;9.50;99.90;;;;;;5052892;28;20155;-77
2023/04/17 12:38:12;;;;;;;2.00;1.40;;;9.60;99.90;;;;;;5035518;28;20466;-76
2023/04/17 12:40:41;;;;;;;2.10;1.40;;;9.70;99.90;;;;;;5053825;28;20091;-76
2023/04/17 12:43:09;;;;;;;2.58;1.35;;;9.60;99.90;;;;;;5053952;28;20033;-77
2023/04/17 12:45:36;;;;;;;2.50;1.55;;;9.60;99.90;;;;;;5049952;28;20036;-76
2023/04/17 12:48:02;;;;;;;2.90;2.03;;;9.60;99.90;;;;;;5033859;28;20029;-77
2023/04/17 12:50:28;;;;;;;2.60;1.52;;;9.60;99.90;;;;;;5036082;28;20043;-77
2023/04/17 12:52:53;;;;;;;2.13;1.30;;;9.60;99.90;;;;;;5043760;28;20037;-77
2023/04/17 12:55:20;;;;;;;1.95;1.38;;;9.70;99.90;;;;;;5043573;28;20547;-77
2023/04/17 12:57:46;;;;;;;2.15;1.50;;;9.80;99.90;;;;;;5026723;28;20065;-77
2023/04/17 13:00:12;;;;;;;2.95;1.95;;;9.80;99.90;;;;;;5036372;28;20049;-77